sensor_id;sensor_type;location;lat;lon;timestamp;temperature;humidity
68098;DHT22;54886;47.036;15.466;2023-11-19T00:00:49;4.27;69.69
68098;DHT22;54886;47.036;15.466;2023-11-19T00:03:16;4.28;69.65
68098;DHT22;54886;47.036;15.466;2023-11-19T00:05:41;4.27;69.68
68098;DHT22;54886;47.036;15.466;2023-11-19T00:08:06;4.27;69.09
68098;DHT22;54886;47.036;15.466;2023-11-19T00:10:33;4.28;70.23
68098;DHT22;54886;47.036;15.466;2023-11-19T00:12:59;4.31;69.22
68098;DHT22;54886;47.036;15.466;2023-11-19T00:15:24;4.27;69.06
68098;DHT22;54886;47.036;15.466;2023-11-19T00:17:50;4.28;68.87
68098;DHT22;54886;47.036;15.466;2023-11-19T00:20:19;4.30;68.48
68098;DHT22;54886;47.036;15.466;2023-11-19T00:22:45;4.31;68.15
68098;DHT22;54886;47.036;15.466;2023-11-19T00:25:20;4.30;68.19
68098;DHT22;54886;47.036;15.466;2023-11-19T00:27:46;4.31;68.19
68098;DHT22;54886;47.036;15.466;2023-11-19T00:30:13;4.33;68.18
68098;DHT22;54886;47.036;15.466;2023-11-19T00:32:39;4.30;68.27
68098;DHT22;54886;47.036;15.466;2023-11-19T00:35:06;4.37;67.98
68098;DHT22;54886;47.036;15.466;2023-11-19T00:37:32;4.41;67.64
68098;DHT22;54886;47.036;15.466;2023-11-19T00:39:57;4.38;67.45
68098;DHT22;54886;47.036;15.466;2023-11-19T00:42:23;4.37;67.64
68098;DHT22;54886;47.036;15.466;2023-11-19T00:44:49;4.34;68.42
68098;DHT22;54886;47.036;15.466;2023-11-19T00:47:15;4.36;68.33
68098;DHT22;54886;47.036;15.466;2023-11-19T00:49:40;4.33;68.52
68098;DHT22;54886;47.036;15.466;2023-11-19T00:52:06;4.37;68.63
68098;DHT22;54886;47.036;15.466;2023-11-19T00:54:32;4.33;67.69
68098;DHT22;54886;47.036;15.466;2023-11-19T00:56:57;4.36;68.15
68098;DHT22;54886;47.036;15.466;2023-11-19T00:59:22;4.37;67.88
68098;DHT22;54886;47.036;15.466;2023-11-19T01:01:48;4.36;68.01
68098;DHT22;54886;47.036;15.466;2023-11-19T01:04:14;4.37;67.65
68098;DHT22;54886;47.036;15.466;2023-11-19T01:06:40;4.40;68.03
68098;DHT22;54886;47.036;15.466;2023-11-19T01:09:05;4.37;68.01
68098;DHT22;54886;47.036;15.466;2023-11-19T01:11:30;4.36;68.10
68098;DHT22;54886;47.036;15.466;2023-11-19T01:13:56;4.37;67.85
68098;DHT22;54886;47.036;15.466;2023-11-19T01:16:21;4.37;67.69
68098;DHT22;54886;47.036;15.466;2023-11-19T01:18:48;4.37;66.93
68098;DHT22;54886;47.036;15.466;2023-11-19T01:21:14;4.38;67.38
68098;DHT22;54886;47.036;15.466;2023-11-19T01:23:40;4.37;67.84
68098;DHT22;54886;47.036;15.466;2023-11-19T01:26:08;4.36;67.82
68098;DHT22;54886;47.036;15.466;2023-11-19T01:28:35;4.36;67.90
68098;DHT22;54886;47.036;15.466;2023-11-19T01:31:00;4.37;67.86
68098;DHT22;54886;47.036;15.466;2023-11-19T01:33:26;4.38;68.10
68098;DHT22;54886;47.036;15.466;2023-11-19T01:35:52;4.37;68.03
68098;DHT22;54886;47.036;15.466;2023-11-19T01:38:17;4.36;68.24
68098;DHT22;54886;47.036;15.466;2023-11-19T01:40:42;4.37;67.94
68098;DHT22;54886;47.036;15.466;2023-11-19T01:43:08;4.37;67.82
68098;DHT22;54886;47.036;15.466;2023-11-19T01:45:37;4.34;67.36
68098;DHT22;54886;47.036;15.466;2023-11-19T01:48:04;4.37;67.63
68098;DHT22;54886;47.036;15.466;2023-11-19T01:50:30;4.37;67.60
68098;DHT22;54886;47.036;15.466;2023-11-19T01:52:56;4.40;67.87
68098;DHT22;54886;47.036;15.466;2023-11-19T01:55:27;4.38;68.27
68098;DHT22;54886;47.036;15.466;2023-11-19T01:57:55;4.37;67.91
68098;DHT22;54886;47.036;15.466;2023-11-19T02:00:23;4.37;67.75
68098;DHT22;54886;47.036;15.466;2023-11-19T02:02:50;4.37;67.75
68098;DHT22;54886;47.036;15.466;2023-11-19T02:05:17;4.36;67.86
68098;DHT22;54886;47.036;15.466;2023-11-19T02:07:42;4.38;67.82
68098;DHT22;54886;47.036;15.466;2023-11-19T02:10:08;4.41;67.71
68098;DHT22;54886;47.036;15.466;2023-11-19T02:12:39;4.41;67.75
68098;DHT22;54886;47.036;15.466;2023-11-19T02:15:09;4.37;68.01
68098;DHT22;54886;47.036;15.466;2023-11-19T02:17:34;4.37;68.40
68098;DHT22;54886;47.036;15.466;2023-11-19T02:20:00;4.37;68.54
68098;DHT22;54886;47.036;15.466;2023-11-19T02:22:27;4.33;68.88
68098;DHT22;54886;47.036;15.466;2023-11-19T02:24:57;4.30;68.87
68098;DHT22;54886;47.036;15.466;2023-11-19T02:27:47;4.31;69.29
68098;DHT22;54886;47.036;15.466;2023-11-19T02:30:13;4.24;69.82
68098;DHT22;54886;47.036;15.466;2023-11-19T02:32:41;4.24;70.21
68098;DHT22;54886;47.036;15.466;2023-11-19T02:35:07;4.20;70.33
68098;DHT22;54886;47.036;15.466;2023-11-19T02:37:37;4.22;70.41
68098;DHT22;54886;47.036;15.466;2023-11-19T02:40:04;4.22;70.26
68098;DHT22;54886;47.036;15.466;2023-11-19T02:42:30;4.24;70.08
68098;DHT22;54886;47.036;15.466;2023-11-19T02:44:56;4.24;69.60
68098;DHT22;54886;47.036;15.466;2023-11-19T02:47:21;4.18;70.14
68098;DHT22;54886;47.036;15.466;2023-11-19T02:49:49;4.20;70.44
68098;DHT22;54886;47.036;15.466;2023-11-19T02:52:14;4.21;70.18
68098;DHT22;54886;47.036;15.466;2023-11-19T02:54:40;4.20;70.56
68098;DHT22;54886;47.036;15.466;2023-11-19T02:57:06;4.20;70.71
68098;DHT22;54886;47.036;15.466;2023-11-19T02:59:37;4.18;70.97
68098;DHT22;54886;47.036;15.466;2023-11-19T03:02:07;4.17;70.54
68098;DHT22;54886;47.036;15.466;2023-11-19T03:04:36;4.21;70.70
68098;DHT22;54886;47.036;15.466;2023-11-19T03:07:05;4.20;70.83
68098;DHT22;54886;47.036;15.466;2023-11-19T03:09:30;4.21;70.86
68098;DHT22;54886;47.036;15.466;2023-11-19T03:11:55;4.27;70.42
68098;DHT22;54886;47.036;15.466;2023-11-19T03:14:21;4.24;70.68
68098;DHT22;54886;47.036;15.466;2023-11-19T03:16:48;4.24;70.49
68098;DHT22;54886;47.036;15.466;2023-11-19T03:19:13;4.21;70.73
68098;DHT22;54886;47.036;15.466;2023-11-19T03:21:38;4.21;71.03
68098;DHT22;54886;47.036;15.466;2023-11-19T03:24:04;4.17;70.98
68098;DHT22;54886;47.036;15.466;2023-11-19T03:26:30;4.16;71.47
68098;DHT22;54886;47.036;15.466;2023-11-19T03:28:55;4.14;71.37
68098;DHT22;54886;47.036;15.466;2023-11-19T03:31:22;4.14;71.17
68098;DHT22;54886;47.036;15.466;2023-11-19T03:33:48;4.16;71.00
68098;DHT22;54886;47.036;15.466;2023-11-19T03:36:13;4.16;71.60
68098;DHT22;54886;47.036;15.466;2023-11-19T03:38:38;4.14;71.43
68098;DHT22;54886;47.036;15.466;2023-11-19T03:41:13;4.13;71.55
68098;DHT22;54886;47.036;15.466;2023-11-19T03:43:42;4.14;71.59
68098;DHT22;54886;47.036;15.466;2023-11-19T03:46:20;4.13;71.51
68098;DHT22;54886;47.036;15.466;2023-11-19T03:48:49;4.10;71.91
68098;DHT22;54886;47.036;15.466;2023-11-19T03:51:16;4.11;71.60
68098;DHT22;54886;47.036;15.466;2023-11-19T03:53:45;4.13;71.68
68098;DHT22;54886;47.036;15.466;2023-11-19T03:56:11;4.13;71.42
68098;DHT22;54886;47.036;15.466;2023-11-19T03:58:37;4.10;71.56
68098;DHT22;54886;47.036;15.466;2023-11-19T04:01:11;4.11;71.36
68098;DHT22;54886;47.036;15.466;2023-11-19T04:03:36;4.13;71.57
68098;DHT22;54886;47.036;15.466;2023-11-19T04:06:02;4.13;72.05
68098;DHT22;54886;47.036;15.466;2023-11-19T04:08:27;4.13;71.75
68098;DHT22;54886;47.036;15.466;2023-11-19T04:10:53;4.11;71.77
68098;DHT22;54886;47.036;15.466;2023-11-19T04:13:18;4.10;71.85
68098;DHT22;54886;47.036;15.466;2023-11-19T04:15:45;4.10;72.06
68098;DHT22;54886;47.036;15.466;2023-11-19T04:18:10;4.07;72.26
68098;DHT22;54886;47.036;15.466;2023-11-19T04:20:36;4.07;72.73
68098;DHT22;54886;47.036;15.466;2023-11-19T04:23:01;4.09;72.45
68098;DHT22;54886;47.036;15.466;2023-11-19T04:25:27;4.04;72.89
68098;DHT22;54886;47.036;15.466;2023-11-19T04:27:52;4.07;72.81
68098;DHT22;54886;47.036;15.466;2023-11-19T04:30:18;4.10;72.48
68098;DHT22;54886;47.036;15.466;2023-11-19T04:32:44;4.10;72.51
68098;DHT22;54886;47.036;15.466;2023-11-19T04:35:09;4.06;72.29
68098;DHT22;54886;47.036;15.466;2023-11-19T04:37:35;4.07;72.15
68098;DHT22;54886;47.036;15.466;2023-11-19T04:40:00;4.04;72.62
68098;DHT22;54886;47.036;15.466;2023-11-19T04:42:26;4.07;72.54
68098;DHT22;54886;47.036;15.466;2023-11-19T04:44:51;4.06;72.40
68098;DHT22;54886;47.036;15.466;2023-11-19T04:47:17;4.10;72.16
68098;DHT22;54886;47.036;15.466;2023-11-19T04:49:43;4.10;72.36
68098;DHT22;54886;47.036;15.466;2023-11-19T04:52:08;4.10;72.17
68098;DHT22;54886;47.036;15.466;2023-11-19T04:54:34;4.10;72.42
68098;DHT22;54886;47.036;15.466;2023-11-19T04:56:59;4.07;72.82
68098;DHT22;54886;47.036;15.466;2023-11-19T04:59:25;4.09;72.27
68098;DHT22;54886;47.036;15.466;2023-11-19T05:01:50;4.10;72.74
68098;DHT22;54886;47.036;15.466;2023-11-19T05:04:16;4.10;72.49
68098;DHT22;54886;47.036;15.466;2023-11-19T05:06:42;4.04;72.96
68098;DHT22;54886;47.036;15.466;2023-11-19T05:09:07;4.02;72.75
68098;DHT22;54886;47.036;15.466;2023-11-19T05:11:33;4.02;72.89
68098;DHT22;54886;47.036;15.466;2023-11-19T05:14:00;3.99;73.04
68098;DHT22;54886;47.036;15.466;2023-11-19T05:16:25;3.97;73.16
68098;DHT22;54886;47.036;15.466;2023-11-19T05:18:51;3.94;73.21
68098;DHT22;54886;47.036;15.466;2023-11-19T05:21:16;3.89;73.76
68098;DHT22;54886;47.036;15.466;2023-11-19T05:23:42;3.82;73.98
68098;DHT22;54886;47.036;15.466;2023-11-19T05:26:08;3.85;74.07
68098;DHT22;54886;47.036;15.466;2023-11-19T05:28:37;3.89;72.49
68098;DHT22;54886;47.036;15.466;2023-11-19T05:31:02;3.83;73.57
68098;DHT22;54886;47.036;15.466;2023-11-19T05:33:28;3.85;73.87
68098;DHT22;54886;47.036;15.466;2023-11-19T05:35:53;3.82;73.76
68098;DHT22;54886;47.036;15.466;2023-11-19T05:38:19;3.83;73.76
68098;DHT22;54886;47.036;15.466;2023-11-19T05:40:44;3.87;73.83
68098;DHT22;54886;47.036;15.466;2023-11-19T05:43:09;3.82;74.48
68098;DHT22;54886;47.036;15.466;2023-11-19T05:45:35;3.82;74.64
68098;DHT22;54886;47.036;15.466;2023-11-19T05:48:01;3.82;74.61
68098;DHT22;54886;47.036;15.466;2023-11-19T05:50:28;3.85;74.75
68098;DHT22;54886;47.036;15.466;2023-11-19T05:52:53;3.81;75.81
68098;DHT22;54886;47.036;15.466;2023-11-19T05:55:19;3.87;74.55
68098;DHT22;54886;47.036;15.466;2023-11-19T05:57:44;3.87;74.02
68098;DHT22;54886;47.036;15.466;2023-11-19T06:00:10;3.85;74.86
68098;DHT22;54886;47.036;15.466;2023-11-19T06:02:36;3.90;74.60
68098;DHT22;54886;47.036;15.466;2023-11-19T06:05:03;3.89;75.81
68098;DHT22;54886;47.036;15.466;2023-11-19T06:07:31;3.90;75.21
68098;DHT22;54886;47.036;15.466;2023-11-19T06:09:56;3.90;75.19
68098;DHT22;54886;47.036;15.466;2023-11-19T06:12:23;3.89;75.23
68098;DHT22;54886;47.036;15.466;2023-11-19T06:14:48;3.93;74.76
68098;DHT22;54886;47.036;15.466;2023-11-19T06:17:14;3.92;75.31
68098;DHT22;54886;47.036;15.466;2023-11-19T06:19:40;3.94;75.35
68098;DHT22;54886;47.036;15.466;2023-11-19T06:22:05;3.99;75.45
68098;DHT22;54886;47.036;15.466;2023-11-19T06:24:30;3.97;74.77
68098;DHT22;54886;47.036;15.466;2023-11-19T06:26:56;3.96;75.38
68098;DHT22;54886;47.036;15.466;2023-11-19T06:29:21;3.99;75.31
68098;DHT22;54886;47.036;15.466;2023-11-19T06:31:47;4.02;75.11
68098;DHT22;54886;47.036;15.466;2023-11-19T06:34:15;3.99;75.39
68098;DHT22;54886;47.036;15.466;2023-11-19T06:36:41;3.97;75.81
68098;DHT22;54886;47.036;15.466;2023-11-19T06:39:06;4.00;75.14
68098;DHT22;54886;47.036;15.466;2023-11-19T06:41:31;4.02;75.20
68098;DHT22;54886;47.036;15.466;2023-11-19T06:43:57;4.00;75.38
68098;DHT22;54886;47.036;15.466;2023-11-19T06:46:22;4.03;75.32
68098;DHT22;54886;47.036;15.466;2023-11-19T06:48:48;4.00;75.40
68098;DHT22;54886;47.036;15.466;2023-11-19T06:51:13;4.02;75.76
68098;DHT22;54886;47.036;15.466;2023-11-19T06:53:39;4.02;75.34
68098;DHT22;54886;47.036;15.466;2023-11-19T06:56:20;4.06;74.56
68098;DHT22;54886;47.036;15.466;2023-11-19T06:58:46;4.07;75.12
68098;DHT22;54886;47.036;15.466;2023-11-19T07:01:13;4.07;75.40
68098;DHT22;54886;47.036;15.466;2023-11-19T07:03:38;4.09;74.74
68098;DHT22;54886;47.036;15.466;2023-11-19T07:06:04;4.09;74.84
68098;DHT22;54886;47.036;15.466;2023-11-19T07:08:30;4.13;74.97
68098;DHT22;54886;47.036;15.466;2023-11-19T07:10:56;4.13;74.92
68098;DHT22;54886;47.036;15.466;2023-11-19T07:13:21;4.16;74.76
68098;DHT22;54886;47.036;15.466;2023-11-19T07:15:46;4.18;74.23
68098;DHT22;54886;47.036;15.466;2023-11-19T07:18:12;4.18;74.87
68098;DHT22;54886;47.036;15.466;2023-11-19T07:20:37;4.21;75.00
68098;DHT22;54886;47.036;15.466;2023-11-19T07:23:03;4.21;75.32
68098;DHT22;54886;47.036;15.466;2023-11-19T07:25:29;4.17;74.97
68098;DHT22;54886;47.036;15.466;2023-11-19T07:27:54;4.21;75.20
68098;DHT22;54886;47.036;15.466;2023-11-19T07:30:19;4.21;74.45
68098;DHT22;54886;47.036;15.466;2023-11-19T07:32:45;4.22;75.29
68098;DHT22;54886;47.036;15.466;2023-11-19T07:35:10;4.24;75.09
68098;DHT22;54886;47.036;15.466;2023-11-19T07:37:37;4.21;75.51
68098;DHT22;54886;47.036;15.466;2023-11-19T07:40:02;4.22;75.14
68098;DHT22;54886;47.036;15.466;2023-11-19T07:42:28;4.20;75.28
68098;DHT22;54886;47.036;15.466;2023-11-19T07:44:54;4.22;74.75
68098;DHT22;54886;47.036;15.466;2023-11-19T07:47:21;4.25;74.25
68098;DHT22;54886;47.036;15.466;2023-11-19T07:49:48;4.33;73.66
68098;DHT22;54886;47.036;15.466;2023-11-19T07:52:14;4.31;73.94
68098;DHT22;54886;47.036;15.466;2023-11-19T07:54:39;4.34;73.56
68098;DHT22;54886;47.036;15.466;2023-11-19T07:57:04;4.31;73.66
68098;DHT22;54886;47.036;15.466;2023-11-19T07:59:30;4.34;73.66
68098;DHT22;54886;47.036;15.466;2023-11-19T08:01:55;4.30;74.08
68098;DHT22;54886;47.036;15.466;2023-11-19T08:04:21;4.36;73.56
68098;DHT22;54886;47.036;15.466;2023-11-19T08:06:46;4.40;73.33
68098;DHT22;54886;47.036;15.466;2023-11-19T08:09:11;4.41;73.53
68098;DHT22;54886;47.036;15.466;2023-11-19T08:11:41;4.36;73.96
68098;DHT22;54886;47.036;15.466;2023-11-19T08:14:07;4.33;73.97
68098;DHT22;54886;47.036;15.466;2023-11-19T08:16:33;4.40;73.73
68098;DHT22;54886;47.036;15.466;2023-11-19T08:18:59;4.38;73.83
68098;DHT22;54886;47.036;15.466;2023-11-19T08:21:24;4.36;73.45
68098;DHT22;54886;47.036;15.466;2023-11-19T08:23:49;4.38;73.50
68098;DHT22;54886;47.036;15.466;2023-11-19T08:26:15;4.40;73.58
68098;DHT22;54886;47.036;15.466;2023-11-19T08:28:41;4.41;73.71
68098;DHT22;54886;47.036;15.466;2023-11-19T08:31:06;4.38;74.63
68098;DHT22;54886;47.036;15.466;2023-11-19T08:33:32;4.41;74.58
68098;DHT22;54886;47.036;15.466;2023-11-19T08:35:57;4.54;73.92
68098;DHT22;54886;47.036;15.466;2023-11-19T08:38:24;4.49;74.11
68098;DHT22;54886;47.036;15.466;2023-11-19T08:40:50;4.54;74.27
68098;DHT22;54886;47.036;15.466;2023-11-19T08:43:15;4.61;73.88
68098;DHT22;54886;47.036;15.466;2023-11-19T08:45:41;4.64;73.24
68098;DHT22;54886;47.036;15.466;2023-11-19T08:48:06;4.61;73.37
68098;DHT22;54886;47.036;15.466;2023-11-19T08:50:32;4.65;73.03
68098;DHT22;54886;47.036;15.466;2023-11-19T08:52:57;4.59;72.51
68098;DHT22;54886;47.036;15.466;2023-11-19T08:55:23;4.69;72.38
68098;DHT22;54886;47.036;15.466;2023-11-19T08:57:48;4.68;72.92
68098;DHT22;54886;47.036;15.466;2023-11-19T09:00:14;4.71;72.58
68098;DHT22;54886;47.036;15.466;2023-11-19T09:02:39;4.77;71.89
68098;DHT22;54886;47.036;15.466;2023-11-19T09:05:05;4.80;72.72
68098;DHT22;54886;47.036;15.466;2023-11-19T09:07:32;4.86;72.67
68098;DHT22;54886;47.036;15.466;2023-11-19T09:09:58;4.92;72.43
68098;DHT22;54886;47.036;15.466;2023-11-19T09:12:23;4.96;72.10
68098;DHT22;54886;47.036;15.466;2023-11-19T09:14:49;5.00;72.35
68098;DHT22;54886;47.036;15.466;2023-11-19T09:17:14;5.07;72.44
68098;DHT22;54886;47.036;15.466;2023-11-19T09:19:40;5.13;72.74
68098;DHT22;54886;47.036;15.466;2023-11-19T09:22:06;5.11;72.80
68098;DHT22;54886;47.036;15.466;2023-11-19T09:24:31;5.16;72.52
68098;DHT22;54886;47.036;15.466;2023-11-19T09:26:56;5.19;72.45
68098;DHT22;54886;47.036;15.466;2023-11-19T09:29:22;5.20;71.79
68098;DHT22;54886;47.036;15.466;2023-11-19T09:31:49;5.24;72.36
68098;DHT22;54886;47.036;15.466;2023-11-19T09:34:14;5.30;72.64
68098;DHT22;54886;47.036;15.466;2023-11-19T09:36:39;5.30;72.43
68098;DHT22;54886;47.036;15.466;2023-11-19T09:39:12;5.34;72.17
68098;DHT22;54886;47.036;15.466;2023-11-19T09:41:43;5.34;71.60
68098;DHT22;54886;47.036;15.466;2023-11-19T09:44:09;5.38;71.59
68098;DHT22;54886;47.036;15.466;2023-11-19T09:46:35;5.42;71.92
68098;DHT22;54886;47.036;15.466;2023-11-19T09:49:02;5.42;71.65
68098;DHT22;54886;47.036;15.466;2023-11-19T09:51:29;5.48;71.39
68098;DHT22;54886;47.036;15.466;2023-11-19T09:53:54;5.51;71.43
68098;DHT22;54886;47.036;15.466;2023-11-19T09:56:20;5.55;71.71
68098;DHT22;54886;47.036;15.466;2023-11-19T09:58:46;5.59;71.70
68098;DHT22;54886;47.036;15.466;2023-11-19T10:01:11;5.63;71.40
68098;DHT22;54886;47.036;15.466;2023-11-19T10:03:39;5.68;71.31
68098;DHT22;54886;47.036;15.466;2023-11-19T10:06:08;5.73;71.11
68098;DHT22;54886;47.036;15.466;2023-11-19T10:08:36;5.79;71.45
68098;DHT22;54886;47.036;15.466;2023-11-19T10:11:02;5.82;71.51
68098;DHT22;54886;47.036;15.466;2023-11-19T10:13:28;5.83;72.47
68098;DHT22;54886;47.036;15.466;2023-11-19T10:15:55;5.86;71.69
68098;DHT22;54886;47.036;15.466;2023-11-19T10:18:25;5.86;71.16
68098;DHT22;54886;47.036;15.466;2023-11-19T10:20:51;5.94;71.12
68098;DHT22;54886;47.036;15.466;2023-11-19T10:23:17;5.93;71.08
68098;DHT22;54886;47.036;15.466;2023-11-19T10:25:42;5.97;71.02
68098;DHT22;54886;47.036;15.466;2023-11-19T10:28:07;5.99;71.06
68098;DHT22;54886;47.036;15.466;2023-11-19T10:30:33;5.99;71.08
68098;DHT22;54886;47.036;15.466;2023-11-19T10:33:12;5.99;70.50
68098;DHT22;54886;47.036;15.466;2023-11-19T10:35:56;6.02;70.54
68098;DHT22;54886;47.036;15.466;2023-11-19T10:38:23;6.02;70.30
68098;DHT22;54886;47.036;15.466;2023-11-19T10:40:50;6.04;70.65
68098;DHT22;54886;47.036;15.466;2023-11-19T10:43:16;6.09;70.97
68098;DHT22;54886;47.036;15.466;2023-11-19T10:45:42;6.09;70.11
68098;DHT22;54886;47.036;15.466;2023-11-19T10:48:08;6.13;70.21
68098;DHT22;54886;47.036;15.466;2023-11-19T10:50:39;6.17;70.58
68098;DHT22;54886;47.036;15.466;2023-11-19T10:53:05;6.24;70.15
68098;DHT22;54886;47.036;15.466;2023-11-19T10:55:32;6.21;69.92
68098;DHT22;54886;47.036;15.466;2023-11-19T10:58:02;6.27;70.17
68098;DHT22;54886;47.036;15.466;2023-11-19T11:00:29;6.27;70.03
68098;DHT22;54886;47.036;15.466;2023-11-19T11:03:00;6.31;70.07
68098;DHT22;54886;47.036;15.466;2023-11-19T11:05:26;6.30;69.90
68098;DHT22;54886;47.036;15.466;2023-11-19T11:07:55;6.35;69.88
68098;DHT22;54886;47.036;15.466;2023-11-19T11:10:24;6.37;69.84
68098;DHT22;54886;47.036;15.466;2023-11-19T11:12:52;6.42;69.95
68098;DHT22;54886;47.036;15.466;2023-11-19T11:15:22;6.45;70.17
68098;DHT22;54886;47.036;15.466;2023-11-19T11:17:50;6.45;69.67
68098;DHT22;54886;47.036;15.466;2023-11-19T11:20:16;6.51;69.81
68098;DHT22;54886;47.036;15.466;2023-11-19T11:23:27;6.49;69.45
68098;DHT22;54886;47.036;15.466;2023-11-19T11:28:41;6.56;69.61
68098;DHT22;54886;47.036;15.466;2023-11-19T11:36:57;6.66;69.37
68098;DHT22;54886;47.036;15.466;2023-11-19T11:39:28;6.72;69.22
68098;DHT22;54886;47.036;15.466;2023-11-19T11:50:15;6.79;69.96
68098;DHT22;54886;47.036;15.466;2023-11-19T11:58:30;6.86;68.90
68098;DHT22;54886;47.036;15.466;2023-11-19T12:00:58;6.89;68.94
68098;DHT22;54886;47.036;15.466;2023-11-19T12:03:27;6.93;68.77
68098;DHT22;54886;47.036;15.466;2023-11-19T12:05:52;6.97;68.78
68098;DHT22;54886;47.036;15.466;2023-11-19T12:08:19;7.01;68.83
68098;DHT22;54886;47.036;15.466;2023-11-19T12:10:50;7.03;68.85
68098;DHT22;54886;47.036;15.466;2023-11-19T12:13:17;7.05;69.01
68098;DHT22;54886;47.036;15.466;2023-11-19T12:18:31;7.15;68.87
68098;DHT22;54886;47.036;15.466;2023-11-19T12:20:57;7.20;68.64
68098;DHT22;54886;47.036;15.466;2023-11-19T12:23:34;7.24;68.70
68098;DHT22;54886;47.036;15.466;2023-11-19T12:25:59;7.28;68.58
68098;DHT22;54886;47.036;15.466;2023-11-19T12:28:25;7.31;68.56
68098;DHT22;54886;47.036;15.466;2023-11-19T12:30:53;7.34;68.76
68098;DHT22;54886;47.036;15.466;2023-11-19T12:33:19;7.36;68.35
68098;DHT22;54886;47.036;15.466;2023-11-19T12:35:48;7.35;68.09
68098;DHT22;54886;47.036;15.466;2023-11-19T12:38:23;7.40;67.92
68098;DHT22;54886;47.036;15.466;2023-11-19T12:41:14;7.44;68.14
68098;DHT22;54886;47.036;15.466;2023-11-19T12:43:43;7.45;68.19
68098;DHT22;54886;47.036;15.466;2023-11-19T12:48:46;7.54;67.79
68098;DHT22;54886;47.036;15.466;2023-11-19T12:51:12;7.58;67.78
68098;DHT22;54886;47.036;15.466;2023-11-19T12:53:48;7.58;67.91
68098;DHT22;54886;47.036;15.466;2023-11-19T12:56:15;7.65;67.68
68098;DHT22;54886;47.036;15.466;2023-11-19T12:58:41;7.63;67.73
68098;DHT22;54886;47.036;15.466;2023-11-19T13:01:08;7.68;67.84
68098;DHT22;54886;47.036;15.466;2023-11-19T13:03:38;7.68;67.59
68098;DHT22;54886;47.036;15.466;2023-11-19T13:08:39;7.82;67.39
68098;DHT22;54886;47.036;15.466;2023-11-19T13:11:05;7.85;67.03
68098;DHT22;54886;47.036;15.466;2023-11-19T13:13:31;7.86;67.19
68098;DHT22;54886;47.036;15.466;2023-11-19T13:16:06;7.87;66.75
68098;DHT22;54886;47.036;15.466;2023-11-19T13:18:31;7.93;66.53
68098;DHT22;54886;47.036;15.466;2023-11-19T13:20:57;7.91;65.88
68098;DHT22;54886;47.036;15.466;2023-11-19T13:23:22;7.96;65.95
68098;DHT22;54886;47.036;15.466;2023-11-19T13:25:48;8.00;65.78
68098;DHT22;54886;47.036;15.466;2023-11-19T13:28:14;7.98;66.07
68098;DHT22;54886;47.036;15.466;2023-11-19T13:30:39;8.00;66.20
68098;DHT22;54886;47.036;15.466;2023-11-19T13:33:05;7.94;66.23
68098;DHT22;54886;47.036;15.466;2023-11-19T13:35:30;8.00;65.87
68098;DHT22;54886;47.036;15.466;2023-11-19T13:37:55;7.97;65.57
68098;DHT22;54886;47.036;15.466;2023-11-19T13:40:21;8.00;65.75
68098;DHT22;54886;47.036;15.466;2023-11-19T13:42:47;7.98;65.87
68098;DHT22;54886;47.036;15.466;2023-11-19T13:45:14;7.98;65.55
68098;DHT22;54886;47.036;15.466;2023-11-19T13:47:42;8.00;65.12
68098;DHT22;54886;47.036;15.466;2023-11-19T13:50:12;8.05;65.42
68098;DHT22;54886;47.036;15.466;2023-11-19T13:52:38;8.03;65.84
68098;DHT22;54886;47.036;15.466;2023-11-19T13:55:10;8.05;65.32
68098;DHT22;54886;47.036;15.466;2023-11-19T13:57:37;8.05;65.35
68098;DHT22;54886;47.036;15.466;2023-11-19T14:00:03;8.08;65.30
68098;DHT22;54886;47.036;15.466;2023-11-19T14:02:36;8.10;65.48
68098;DHT22;54886;47.036;15.466;2023-11-19T14:05:02;8.07;65.70
68098;DHT22;54886;47.036;15.466;2023-11-19T14:07:27;8.13;64.13
68098;DHT22;54886;47.036;15.466;2023-11-19T14:09:53;8.13;64.14
68098;DHT22;54886;47.036;15.466;2023-11-19T14:12:20;8.13;63.98
68098;DHT22;54886;47.036;15.466;2023-11-19T14:14:46;8.13;63.97
68098;DHT22;54886;47.036;15.466;2023-11-19T14:17:11;8.13;63.46
68098;DHT22;54886;47.036;15.466;2023-11-19T14:19:37;8.13;63.38
68098;DHT22;54886;47.036;15.466;2023-11-19T14:22:04;8.10;63.90
68098;DHT22;54886;47.036;15.466;2023-11-19T14:24:29;8.13;63.73
68098;DHT22;54886;47.036;15.466;2023-11-19T14:26:55;8.13;64.30
68098;DHT22;54886;47.036;15.466;2023-11-19T14:29:24;8.11;64.04
68098;DHT22;54886;47.036;15.466;2023-11-19T14:31:51;8.10;64.17
68098;DHT22;54886;47.036;15.466;2023-11-19T14:34:16;8.11;64.14
68098;DHT22;54886;47.036;15.466;2023-11-19T14:36:41;8.10;64.22
68098;DHT22;54886;47.036;15.466;2023-11-19T14:39:07;8.10;63.97
68098;DHT22;54886;47.036;15.466;2023-11-19T14:41:32;8.10;63.83
68098;DHT22;54886;47.036;15.466;2023-11-19T14:43:58;8.11;63.45
68098;DHT22;54886;47.036;15.466;2023-11-19T14:46:23;8.07;63.98
68098;DHT22;54886;47.036;15.466;2023-11-19T14:48:48;8.08;64.33
68098;DHT22;54886;47.036;15.466;2023-11-19T14:51:14;8.10;63.65
68098;DHT22;54886;47.036;15.466;2023-11-19T14:53:39;8.05;65.03
68098;DHT22;54886;47.036;15.466;2023-11-19T14:56:05;8.05;64.16
68098;DHT22;54886;47.036;15.466;2023-11-19T14:58:32;8.05;64.09
68098;DHT22;54886;47.036;15.466;2023-11-19T15:00:57;8.03;64.32
68098;DHT22;54886;47.036;15.466;2023-11-19T15:03:23;8.03;64.57
68098;DHT22;54886;47.036;15.466;2023-11-19T15:05:48;8.00;65.15
68098;DHT22;54886;47.036;15.466;2023-11-19T15:08:14;8.01;65.70
68098;DHT22;54886;47.036;15.466;2023-11-19T15:10:42;7.97;65.32
68098;DHT22;54886;47.036;15.466;2023-11-19T15:13:08;7.96;66.08
68098;DHT22;54886;47.036;15.466;2023-11-19T15:15:34;7.89;66.27
68098;DHT22;54886;47.036;15.466;2023-11-19T15:17:59;7.87;66.27
68098;DHT22;54886;47.036;15.466;2023-11-19T15:20:25;7.85;66.35
68098;DHT22;54886;47.036;15.466;2023-11-19T15:22:55;7.83;66.80
68098;DHT22;54886;47.036;15.466;2023-11-19T15:25:20;7.79;67.00
68098;DHT22;54886;47.036;15.466;2023-11-19T15:27:46;7.76;66.61
68098;DHT22;54886;47.036;15.466;2023-11-19T15:30:12;7.73;66.73
68098;DHT22;54886;47.036;15.466;2023-11-19T15:32:38;7.72;66.79
68098;DHT22;54886;47.036;15.466;2023-11-19T15:35:04;7.72;66.97
68098;DHT22;54886;47.036;15.466;2023-11-19T15:37:29;7.66;67.35
68098;DHT22;54886;47.036;15.466;2023-11-19T15:39:55;7.63;67.72
68098;DHT22;54886;47.036;15.466;2023-11-19T15:42:20;7.56;67.62
68098;DHT22;54886;47.036;15.466;2023-11-19T15:44:46;7.56;67.59
68098;DHT22;54886;47.036;15.466;2023-11-19T15:47:11;7.54;67.89
68098;DHT22;54886;47.036;15.466;2023-11-19T15:49:37;7.54;67.39
68098;DHT22;54886;47.036;15.466;2023-11-19T15:52:03;7.51;67.59
68098;DHT22;54886;47.036;15.466;2023-11-19T15:54:30;7.45;67.75
68098;DHT22;54886;47.036;15.466;2023-11-19T15:56:55;7.44;67.96